Terminal Aerodrome Forecast
Issued by NWS

Home | Current Version | Previous Version | Graphics & Text | Print | Product List | Glossary Off
Versions: 1 2 3 4 5 6 7 8 9 10 11 12 13 14 15 16 17 18 19 20 21 22 23 24 25 26 27 28 29 30 31 32 33 34 35 36 37 38 39 40 41 42 43 44 45 46 47 48 49 50

000
FTUS43 KDDC 260730 AAA
TAFGCK
TAF AMD
KGCK 260730Z 2607/2706 12009KT P6SM BKN150
      TEMPO 2608/2610 5SM -TSRA BR BKN080CB
     FM261700 16015G22KT P6SM SCT060
     FM270100 16008KT P6SM OVC250=

USA.gov is the U.S. government's official web portal to all federal, state and local government web resources and services.